Rockwell, Iowa
Current Conditions -  °F | °C
As of 8:53 PM on Tuesday 21 Oct 2014 (Local Time) from KMCW Reporting Station
Clear Clear  
Wind Chill: 43°   Ceiling: Unl
Heat Index: 47°   Visibility: 10mi
Dew Point: 39°   Wind: 9mph
Humidity: 74%   Direction: 130°SE
Pressure: 30.18"   Gusts: NA
Location:  42.99°N, 93.19°W
Report Text: KMCW 220153Z AUTO 13008KT 10SM CLR 08/04 A3018 RMK AO2 SLP221 T00830039
Loading
Personal Weather Stations






























Interactive Weather Map
Tropical Storm Tracking
New forecast layout! Learn more

10-Day Weather Forecast

Advertisements
Track Severe Weather on mobile